sensor_id;sensor_type;location;lat;lon;timestamp;pressure;altitude;pressure_sealevel;temperature;humidity
15998;BME280;8103;51.340;12.326;2023-06-22T00:00:02;100538.75;;;23.84;72.19
15998;BME280;8103;51.340;12.326;2023-06-22T00:02:35;100547.75;;;23.85;72.25
15998;BME280;8103;51.340;12.326;2023-06-22T00:05:02;100535.53;;;23.82;71.81
15998;BME280;8103;51.340;12.326;2023-06-22T00:07:28;100534.25;;;23.80;72.58
15998;BME280;8103;51.340;12.326;2023-06-22T00:09:55;100527.63;;;23.81;72.99
15998;BME280;8103;51.340;12.326;2023-06-22T00:12:22;100532.19;;;23.77;73.35
15998;BME280;8103;51.340;12.326;2023-06-22T00:14:49;100528.03;;;23.71;74.07
15998;BME280;8103;51.340;12.326;2023-06-22T00:17:16;100522.28;;;23.64;74.12
15998;BME280;8103;51.340;12.326;2023-06-22T00:19:43;100525.19;;;23.59;74.38
15998;BME280;8103;51.340;12.326;2023-06-22T00:22:09;100530.19;;;23.57;74.53
15998;BME280;8103;51.340;12.326;2023-06-22T00:24:36;100525.34;;;23.54;74.80
15998;BME280;8103;51.340;12.326;2023-06-22T00:27:03;100526.81;;;23.51;75.47
15998;BME280;8103;51.340;12.326;2023-06-22T00:29:31;100521.06;;;23.44;75.56
15998;BME280;8103;51.340;12.326;2023-06-22T00:31:58;100524.78;;;23.40;75.23
15998;BME280;8103;51.340;12.326;2023-06-22T00:34:25;100522.22;;;23.35;75.78
15998;BME280;8103;51.340;12.326;2023-06-22T00:36:52;100521.78;;;23.33;76.31
15998;BME280;8103;51.340;12.326;2023-06-22T00:39:19;100514.22;;;23.30;76.77
15998;BME280;8103;51.340;12.326;2023-06-22T00:41:46;100519.34;;;23.31;76.59
15998;BME280;8103;51.340;12.326;2023-06-22T00:44:13;100526.75;;;23.31;76.87
15998;BME280;8103;51.340;12.326;2023-06-22T00:46:40;100517.13;;;23.25;77.18
15998;BME280;8103;51.340;12.326;2023-06-22T00:49:06;100512.59;;;23.20;77.56
15998;BME280;8103;51.340;12.326;2023-06-22T00:51:34;100515.19;;;23.17;77.48
15998;BME280;8103;51.340;12.326;2023-06-22T00:54:04;100514.22;;;23.13;77.50
15998;BME280;8103;51.340;12.326;2023-06-22T00:56:32;100511.69;;;23.08;77.35
15998;BME280;8103;51.340;12.326;2023-06-22T00:59:00;100507.50;;;23.02;77.90
15998;BME280;8103;51.340;12.326;2023-06-22T01:01:30;100511.22;;;22.97;78.09
15998;BME280;8103;51.340;12.326;2023-06-22T01:03:57;100511.06;;;22.93;78.32
15998;BME280;8103;51.340;12.326;2023-06-22T01:06:35;100514.44;;;22.90;78.32
15998;BME280;8103;51.340;12.326;2023-06-22T01:09:27;100510.78;;;22.86;78.57
15998;BME280;8103;51.340;12.326;2023-06-22T01:12:02;100504.34;;;22.82;79.57
15998;BME280;8103;51.340;12.326;2023-06-22T01:14:55;100509.00;;;22.82;79.77
15998;BME280;8103;51.340;12.326;2023-06-22T01:17:26;100506.59;;;22.80;79.67
15998;BME280;8103;51.340;12.326;2023-06-22T01:19:57;100519.81;;;22.78;80.00
15998;BME280;8103;51.340;12.326;2023-06-22T01:22:30;100511.75;;;22.73;80.08
15998;BME280;8103;51.340;12.326;2023-06-22T01:25:26;100516.28;;;22.69;80.11
15998;BME280;8103;51.340;12.326;2023-06-22T01:28:08;100516.94;;;22.66;80.26
15998;BME280;8103;51.340;12.326;2023-06-22T01:30:45;100516.94;;;22.66;80.11
15998;BME280;8103;51.340;12.326;2023-06-22T01:33:14;100513.06;;;22.67;80.48
15998;BME280;8103;51.340;12.326;2023-06-22T01:35:43;100517.88;;;22.70;80.50
15998;BME280;8103;51.340;12.326;2023-06-22T01:38:11;100513.06;;;22.67;80.48
15998;BME280;8103;51.340;12.326;2023-06-22T01:40:38;100517.91;;;22.62;80.26
15998;BME280;8103;51.340;12.326;2023-06-22T01:43:06;100511.81;;;22.56;80.87
15998;BME280;8103;51.340;12.326;2023-06-22T01:45:33;100516.28;;;22.52;81.02
15998;BME280;8103;51.340;12.326;2023-06-22T01:48:00;100523.03;;;22.46;81.32
15998;BME280;8103;51.340;12.326;2023-06-22T01:50:28;100518.53;;;22.42;81.37
15998;BME280;8103;51.340;12.326;2023-06-22T01:52:55;100518.53;;;22.42;81.75
15998;BME280;8103;51.340;12.326;2023-06-22T01:55:22;100518.88;;;22.40;81.79
15998;BME280;8103;51.340;12.326;2023-06-22T01:57:49;100510.16;;;22.38;82.29
15998;BME280;8103;51.340;12.326;2023-06-22T02:00:21;100502.47;;;22.40;82.09
15998;BME280;8103;51.340;12.326;2023-06-22T02:02:59;100503.09;;;22.37;82.47
15998;BME280;8103;51.340;12.326;2023-06-22T02:05:34;100505.16;;;22.32;82.24
15998;BME280;8103;51.340;12.326;2023-06-22T02:08:19;100510.00;;;22.26;82.72
15998;BME280;8103;51.340;12.326;2023-06-22T02:10:51;100515.97;;;22.28;82.57
15998;BME280;8103;51.340;12.326;2023-06-22T02:13:19;100508.91;;;22.27;82.85
15998;BME280;8103;51.340;12.326;2023-06-22T02:15:47;100518.84;;;22.23;82.62
15998;BME280;8103;51.340;12.326;2023-06-22T02:18:15;100512.91;;;22.21;83.01
15998;BME280;8103;51.340;12.326;2023-06-22T02:20:42;100505.81;;;22.20;83.32
15998;BME280;8103;51.340;12.326;2023-06-22T02:23:09;100505.19;;;22.23;83.36
15998;BME280;8103;51.340;12.326;2023-06-22T02:25:36;100501.34;;;22.24;83.38
15998;BME280;8103;51.340;12.326;2023-06-22T02:28:03;100504.06;;;22.24;83.30
15998;BME280;8103;51.340;12.326;2023-06-22T02:30:31;100510.97;;;22.22;83.52
15998;BME280;8103;51.340;12.326;2023-06-22T02:32:58;100496.66;;;22.16;83.43
15998;BME280;8103;51.340;12.326;2023-06-22T02:35:30;100502.78;;;22.13;83.62
15998;BME280;8103;51.340;12.326;2023-06-22T02:38:04;100499.72;;;22.15;83.81
15998;BME280;8103;51.340;12.326;2023-06-22T02:40:32;100495.06;;;22.15;83.83
15998;BME280;8103;51.340;12.326;2023-06-22T02:43:00;100496.66;;;22.16;83.63
15998;BME280;8103;51.340;12.326;2023-06-22T02:45:29;100498.91;;;22.14;83.87
15998;BME280;8103;51.340;12.326;2023-06-22T02:47:56;100495.06;;;22.15;83.59
15998;BME280;8103;51.340;12.326;2023-06-22T02:50:23;100491.69;;;22.18;83.78
15998;BME280;8103;51.340;12.326;2023-06-22T02:52:50;100493.78;;;22.21;83.66
15998;BME280;8103;51.340;12.326;2023-06-22T02:55:17;100497.31;;;22.13;83.69
15998;BME280;8103;51.340;12.326;2023-06-22T02:57:44;100489.94;;;22.05;84.20
15998;BME280;8103;51.340;12.326;2023-06-22T03:00:14;100496.03;;;22.02;84.35
15998;BME280;8103;51.340;12.326;2023-06-22T03:02:47;100491.22;;;21.99;84.44
15998;BME280;8103;51.340;12.326;2023-06-22T03:05:15;100492.97;;;22.04;84.24
15998;BME280;8103;51.340;12.326;2023-06-22T03:07:45;100497.94;;;22.10;84.23
15998;BME280;8103;51.340;12.326;2023-06-22T03:10:14;100494.56;;;22.13;84.24
15998;BME280;8103;51.340;12.326;2023-06-22T03:12:43;100497.16;;;22.18;84.65
15998;BME280;8103;51.340;12.326;2023-06-22T03:15:12;100497.63;;;22.12;84.57
15998;BME280;8103;51.340;12.326;2023-06-22T03:17:40;100488.63;;;22.11;85.02
15998;BME280;8103;51.340;12.326;2023-06-22T03:20:10;100499.91;;;22.18;84.94
15998;BME280;8103;51.340;12.326;2023-06-22T03:22:39;100492.16;;;22.20;84.54
15998;BME280;8103;51.340;12.326;2023-06-22T03:25:09;100489.91;;;22.22;84.73
15998;BME280;8103;51.340;12.326;2023-06-22T03:27:43;100494.75;;;22.25;84.73
15998;BME280;8103;51.340;12.326;2023-06-22T03:30:15;100494.59;;;22.30;84.96
15998;BME280;8103;51.340;12.326;2023-06-22T03:32:42;100506.00;;;22.32;84.50
15998;BME280;8103;51.340;12.326;2023-06-22T03:35:10;100496.97;;;22.32;84.85
15998;BME280;8103;51.340;12.326;2023-06-22T03:37:39;100499.56;;;22.28;84.81
15998;BME280;8103;51.340;12.326;2023-06-22T03:40:07;100506.63;;;22.29;84.95
15998;BME280;8103;51.340;12.326;2023-06-22T03:42:34;100520.16;;;22.34;84.92
15998;BME280;8103;51.340;12.326;2023-06-22T03:45:05;100534.28;;;22.36;84.66
15998;BME280;8103;51.340;12.326;2023-06-22T03:47:33;100536.53;;;22.34;84.56
15998;BME280;8103;51.340;12.326;2023-06-22T03:50:00;100526.41;;;22.35;85.12
15998;BME280;8103;51.340;12.326;2023-06-22T03:52:30;100530.44;;;22.37;84.67
15998;BME280;8103;51.340;12.326;2023-06-22T03:54:57;100526.75;;;22.42;84.93
15998;BME280;8103;51.340;12.326;2023-06-22T03:57:24;100542.97;;;22.47;84.29
15998;BME280;8103;51.340;12.326;2023-06-22T03:59:50;100557.97;;;22.49;84.16
15998;BME280;8103;51.340;12.326;2023-06-22T04:02:17;100565.03;;;22.50;84.58
15998;BME280;8103;51.340;12.326;2023-06-22T04:04:44;100575.78;;;22.55;84.02
15998;BME280;8103;51.340;12.326;2023-06-22T04:07:11;100584.16;;;22.67;83.70
15998;BME280;8103;51.340;12.326;2023-06-22T04:09:38;100590.91;;;22.78;83.21
15998;BME280;8103;51.340;12.326;2023-06-22T04:12:05;100597.81;;;22.93;82.66
15998;BME280;8103;51.340;12.326;2023-06-22T04:14:32;100598.94;;;23.01;82.12
15998;BME280;8103;51.340;12.326;2023-06-22T04:16:59;100600.53;;;23.02;82.36
15998;BME280;8103;51.340;12.326;2023-06-22T04:19:26;100608.28;;;23.08;82.19
15998;BME280;8103;51.340;12.326;2023-06-22T04:21:53;100618.53;;;23.20;81.27
15998;BME280;8103;51.340;12.326;2023-06-22T04:24:19;100606.94;;;23.23;81.26
15998;BME280;8103;51.340;12.326;2023-06-22T04:26:46;100608.88;;;23.31;80.30
15998;BME280;8103;51.340;12.326;2023-06-22T04:29:14;100606.31;;;23.34;80.31
15998;BME280;8103;51.340;12.326;2023-06-22T04:31:41;100598.06;;;23.43;80.60
15998;BME280;8103;51.340;12.326;2023-06-22T04:34:08;100604.31;;;23.52;80.82
15998;BME280;8103;51.340;12.326;2023-06-22T04:36:37;100616.88;;;23.53;81.29
15998;BME280;8103;51.340;12.326;2023-06-22T04:39:10;100619.88;;;23.60;81.55
15998;BME280;8103;51.340;12.326;2023-06-22T04:41:39;100617.81;;;23.57;82.01
15998;BME280;8103;51.340;12.326;2023-06-22T04:44:11;100598.53;;;23.45;82.52
15998;BME280;8103;51.340;12.326;2023-06-22T04:46:39;100598.72;;;23.40;83.22
15998;BME280;8103;51.340;12.326;2023-06-22T04:53:06;100595.69;;;23.33;83.49
15998;BME280;8103;51.340;12.326;2023-06-22T04:55:34;100591.00;;;23.25;84.33
15998;BME280;8103;51.340;12.326;2023-06-22T04:58:00;100581.81;;;23.21;85.33
15998;BME280;8103;51.340;12.326;2023-06-22T05:00:31;100581.81;;;23.21;85.44
15998;BME280;8103;51.340;12.326;2023-06-22T05:02:58;100580.69;;;23.22;85.99
15998;BME280;8103;51.340;12.326;2023-06-22T05:05:36;100586.03;;;23.27;85.98
15998;BME280;8103;51.340;12.326;2023-06-22T05:08:04;100583.72;;;23.46;86.14
15998;BME280;8103;51.340;12.326;2023-06-22T05:10:33;100570.56;;;23.68;85.17
15998;BME280;8103;51.340;12.326;2023-06-22T05:13:00;100565.47;;;23.96;84.48
15998;BME280;8103;51.340;12.326;2023-06-22T05:15:27;100555.59;;;24.24;83.30
15998;BME280;8103;51.340;12.326;2023-06-22T05:17:57;100539.06;;;24.53;82.04
15998;BME280;8103;51.340;12.326;2023-06-22T05:20:25;100528.00;;;24.82;80.81
15998;BME280;8103;51.340;12.326;2023-06-22T05:22:52;100530.34;;;25.04;79.26
15998;BME280;8103;51.340;12.326;2023-06-22T05:25:19;100515.06;;;25.27;77.14
15998;BME280;8103;51.340;12.326;2023-06-22T05:27:46;100505.47;;;25.33;76.51
15998;BME280;8103;51.340;12.326;2023-06-22T05:30:13;100493.81;;;25.36;76.16
15998;BME280;8103;51.340;12.326;2023-06-22T05:32:40;100484.41;;;25.37;76.21
15998;BME280;8103;51.340;12.326;2023-06-22T05:35:07;100473.19;;;25.30;75.96
15998;BME280;8103;51.340;12.326;2023-06-22T05:37:34;100460.81;;;25.12;76.87
15998;BME280;8103;51.340;12.326;2023-06-22T05:40:02;100456.56;;;25.03;77.49
15998;BME280;8103;51.340;12.326;2023-06-22T05:42:29;100463.66;;;25.04;77.36
15998;BME280;8103;51.340;12.326;2023-06-22T05:44:56;100475.22;;;25.21;77.41
15998;BME280;8103;51.340;12.326;2023-06-22T05:47:23;100475.50;;;25.52;75.77
15998;BME280;8103;51.340;12.326;2023-06-22T05:49:50;100474.88;;;25.83;74.73
15998;BME280;8103;51.340;12.326;2023-06-22T05:52:16;100468.22;;;26.08;73.08
15998;BME280;8103;51.340;12.326;2023-06-22T05:54:44;100471.06;;;26.39;70.75
15998;BME280;8103;51.340;12.326;2023-06-22T05:57:10;100461.88;;;26.74;68.97
15998;BME280;8103;51.340;12.326;2023-06-22T05:59:37;100454.59;;;26.98;67.77
15998;BME280;8103;51.340;12.326;2023-06-22T06:02:05;100454.78;;;27.05;67.26
15998;BME280;8103;51.340;12.326;2023-06-22T06:04:32;100452.66;;;27.14;66.54
15998;BME280;8103;51.340;12.326;2023-06-22T06:06:59;100453.47;;;27.30;65.47
15998;BME280;8103;51.340;12.326;2023-06-22T06:09:26;100463.59;;;27.26;64.49
15998;BME280;8103;51.340;12.326;2023-06-22T06:11:53;100468.91;;;27.03;65.26
15998;BME280;8103;51.340;12.326;2023-06-22T06:14:20;100473.72;;;26.91;65.95
15998;BME280;8103;51.340;12.326;2023-06-22T06:16:50;100482.03;;;26.94;65.29
15998;BME280;8103;51.340;12.326;2023-06-22T06:19:17;100482.50;;;27.12;64.67
15998;BME280;8103;51.340;12.326;2023-06-22T06:21:44;100487.59;;;27.41;63.31
15998;BME280;8103;51.340;12.326;2023-06-22T06:24:12;100494.94;;;27.68;62.76
15998;BME280;8103;51.340;12.326;2023-06-22T06:26:38;100493.94;;;27.91;61.64
15998;BME280;8103;51.340;12.326;2023-06-22T06:29:06;100502.00;;;28.00;61.13
15998;BME280;8103;51.340;12.326;2023-06-22T06:31:33;100505.03;;;27.95;60.52
15998;BME280;8103;51.340;12.326;2023-06-22T06:34:00;100503.44;;;27.94;60.47
15998;BME280;8103;51.340;12.326;2023-06-22T06:36:27;100513.03;;;28.00;59.10
15998;BME280;8103;51.340;12.326;2023-06-22T06:38:54;100512.66;;;28.01;59.22
15998;BME280;8103;51.340;12.326;2023-06-22T06:41:21;100512.63;;;28.17;58.93
15998;BME280;8103;51.340;12.326;2023-06-22T06:43:48;100511.81;;;28.35;58.00
15998;BME280;8103;51.340;12.326;2023-06-22T06:46:15;100514.38;;;28.63;56.94
15998;BME280;8103;51.340;12.326;2023-06-22T06:48:42;100517.97;;;28.86;56.24
15998;BME280;8103;51.340;12.326;2023-06-22T06:51:09;100519.00;;;28.97;55.91
15998;BME280;8103;51.340;12.326;2023-06-22T06:53:38;100512.72;;;29.00;55.48
15998;BME280;8103;51.340;12.326;2023-06-22T06:56:05;100518.88;;;28.90;55.09
15998;BME280;8103;51.340;12.326;2023-06-22T07:02:40;100522.47;;;28.94;55.44
15998;BME280;8103;51.340;12.326;2023-06-22T07:05:09;100520.31;;;29.26;54.09
15998;BME280;8103;51.340;12.326;2023-06-22T07:07:37;100518.09;;;29.57;53.75
15998;BME280;8103;51.340;12.326;2023-06-22T07:10:06;100514.13;;;29.81;52.31
15998;BME280;8103;51.340;12.326;2023-06-22T07:12:33;100518.94;;;29.87;51.99
15998;BME280;8103;51.340;12.326;2023-06-22T07:15:06;100509.38;;;29.81;52.02
15998;BME280;8103;51.340;12.326;2023-06-22T07:17:35;100513.72;;;29.56;51.80
15998;BME280;8103;51.340;12.326;2023-06-22T07:20:03;100519.94;;;29.50;52.39
15998;BME280;8103;51.340;12.326;2023-06-22T07:22:44;100528.41;;;29.60;52.65
15998;BME280;8103;51.340;12.326;2023-06-22T07:25:14;100518.69;;;29.70;51.61
15998;BME280;8103;51.340;12.326;2023-06-22T07:28:03;100523.97;;;30.04;50.87
15998;BME280;8103;51.340;12.326;2023-06-22T07:30:32;100513.19;;;30.25;49.58
15998;BME280;8103;51.340;12.326;2023-06-22T07:33:00;100508.66;;;30.40;48.92
15998;BME280;8103;51.340;12.326;2023-06-22T07:35:31;100506.19;;;30.35;49.01
15998;BME280;8103;51.340;12.326;2023-06-22T07:37:58;100500.72;;;30.38;49.49
15998;BME280;8103;51.340;12.326;2023-06-22T07:40:28;100503.31;;;30.57;49.42
15998;BME280;8103;51.340;12.326;2023-06-22T07:42:55;100509.00;;;30.71;48.52
15998;BME280;8103;51.340;12.326;2023-06-22T07:45:22;100506.75;;;30.81;48.33
15998;BME280;8103;51.340;12.326;2023-06-22T07:47:49;100504.56;;;30.97;47.85
15998;BME280;8103;51.340;12.326;2023-06-22T07:50:16;100500.56;;;30.94;46.67
15998;BME280;8103;51.340;12.326;2023-06-22T07:52:43;100510.28;;;30.78;47.50
15998;BME280;8103;51.340;12.326;2023-06-22T07:55:10;100512.31;;;30.84;47.03
15998;BME280;8103;51.340;12.326;2023-06-22T07:57:37;100508.56;;;31.03;46.34
15998;BME280;8103;51.340;12.326;2023-06-22T08:04:10;100502.28;;;31.06;46.45
15998;BME280;8103;51.340;12.326;2023-06-22T08:06:37;100499.97;;;31.15;46.08
15998;BME280;8103;51.340;12.326;2023-06-22T08:09:04;100495.31;;;31.26;46.26
15998;BME280;8103;51.340;12.326;2023-06-22T08:11:31;100485.66;;;31.53;45.35
15998;BME280;8103;51.340;12.326;2023-06-22T08:13:58;100475.06;;;31.69;45.84
15998;BME280;8103;51.340;12.326;2023-06-22T08:16:25;100481.53;;;31.87;44.62
15998;BME280;8103;51.340;12.326;2023-06-22T08:18:52;100480.06;;;32.07;45.04
15998;BME280;8103;51.340;12.326;2023-06-22T08:21:19;100484.03;;;32.09;45.02
15998;BME280;8103;51.340;12.326;2023-06-22T08:23:46;100480.13;;;32.21;44.39
15998;BME280;8103;51.340;12.326;2023-06-22T08:26:14;100487.44;;;32.57;43.86
15998;BME280;8103;51.340;12.326;2023-06-22T08:28:41;100492.25;;;32.74;43.04
15998;BME280;8103;51.340;12.326;2023-06-22T08:31:09;100485.03;;;32.52;42.24
15998;BME280;8103;51.340;12.326;2023-06-22T08:33:39;100487.00;;;32.44;42.77
15998;BME280;8103;51.340;12.326;2023-06-22T08:36:14;100488.91;;;32.30;42.22
15998;BME280;8103;51.340;12.326;2023-06-22T08:38:41;100480.22;;;32.35;42.92
15998;BME280;8103;51.340;12.326;2023-06-22T08:41:08;100481.91;;;32.67;42.48
15998;BME280;8103;51.340;12.326;2023-06-22T08:43:34;100487.56;;;33.06;41.58
15998;BME280;8103;51.340;12.326;2023-06-22T08:46:01;100487.56;;;33.13;41.64
15998;BME280;8103;51.340;12.326;2023-06-22T08:48:29;100484.75;;;32.89;42.02
15998;BME280;8103;51.340;12.326;2023-06-22T08:50:56;100481.53;;;32.76;42.12
15998;BME280;8103;51.340;12.326;2023-06-22T08:53:23;100479.63;;;33.15;40.89
15998;BME280;8103;51.340;12.326;2023-06-22T08:55:50;100483.63;;;33.49;40.73
15998;BME280;8103;51.340;12.326;2023-06-22T08:58:17;100473.28;;;33.53;40.22
15998;BME280;8103;51.340;12.326;2023-06-22T09:00:45;100480.00;;;33.66;39.62
15998;BME280;8103;51.340;12.326;2023-06-22T09:03:12;100475.59;;;34.00;38.70
15998;BME280;8103;51.340;12.326;2023-06-22T09:05:39;100473.34;;;34.61;37.99
15998;BME280;8103;51.340;12.326;2023-06-22T09:08:06;100467.16;;;34.97;37.04
15998;BME280;8103;51.340;12.326;2023-06-22T09:10:33;100468.38;;;35.44;36.01
15998;BME280;8103;51.340;12.326;2023-06-22T09:12:59;100461.75;;;35.68;35.99
15998;BME280;8103;51.340;12.326;2023-06-22T09:15:26;100455.75;;;36.06;34.67
15998;BME280;8103;51.340;12.326;2023-06-22T09:17:53;100461.06;;;36.88;33.80
15998;BME280;8103;51.340;12.326;2023-06-22T09:20:21;100461.41;;;37.62;33.17
15998;BME280;8103;51.340;12.326;2023-06-22T09:22:50;100462.94;;;38.09;31.55
15998;BME280;8103;51.340;12.326;2023-06-22T09:25:16;100449.91;;;38.74;30.34
15998;BME280;8103;51.340;12.326;2023-06-22T09:27:43;100444.72;;;39.37;29.41
15998;BME280;8103;51.340;12.326;2023-06-22T09:30:10;100442.22;;;39.71;29.30
15998;BME280;8103;51.340;12.326;2023-06-22T09:32:37;100433.59;;;39.78;28.74
15998;BME280;8103;51.340;12.326;2023-06-22T09:35:05;100431.06;;;39.39;29.04
15998;BME280;8103;51.340;12.326;2023-06-22T09:37:33;100429.66;;;39.15;29.48
15998;BME280;8103;51.340;12.326;2023-06-22T09:40:00;100430.31;;;39.35;29.04
15998;BME280;8103;51.340;12.326;2023-06-22T09:42:27;100437.19;;;39.18;29.01
15998;BME280;8103;51.340;12.326;2023-06-22T09:44:54;100425.41;;;38.75;29.00
15998;BME280;8103;51.340;12.326;2023-06-22T09:47:21;100417.47;;;38.38;28.75
15998;BME280;8103;51.340;12.326;2023-06-22T09:49:48;100422.53;;;38.43;28.76
15998;BME280;8103;51.340;12.326;2023-06-22T09:52:15;100417.16;;;38.32;29.54
15998;BME280;8103;51.340;12.326;2023-06-22T09:54:42;100424.81;;;38.32;28.93
15998;BME280;8103;51.340;12.326;2023-06-22T09:57:09;100411.31;;;38.94;27.87
15998;BME280;8103;51.340;12.326;2023-06-22T09:59:37;100413.16;;;39.17;27.42
15998;BME280;8103;51.340;12.326;2023-06-22T10:02:07;100417.97;;;39.48;27.38
15998;BME280;8103;51.340;12.326;2023-06-22T10:04:35;100418.53;;;40.13;26.02
15998;BME280;8103;51.340;12.326;2023-06-22T10:07:03;100412.72;;;40.45;24.69
15998;BME280;8103;51.340;12.326;2023-06-22T10:09:30;100401.94;;;41.06;25.34
15998;BME280;8103;51.340;12.326;2023-06-22T10:11:57;100406.91;;;41.70;24.34
15998;BME280;8103;51.340;12.326;2023-06-22T10:14:24;100408.72;;;42.29;24.31
15998;BME280;8103;51.340;12.326;2023-06-22T10:16:52;100395.44;;;42.78;23.27
15998;BME280;8103;51.340;12.326;2023-06-22T10:19:19;100395.34;;;43.00;22.90
15998;BME280;8103;51.340;12.326;2023-06-22T10:21:46;100381.56;;;43.92;22.02
15998;BME280;8103;51.340;12.326;2023-06-22T10:24:13;100391.75;;;44.49;21.51
15998;BME280;8103;51.340;12.326;2023-06-22T10:26:40;100394.03;;;44.69;21.30
15998;BME280;8103;51.340;12.326;2023-06-22T10:29:07;100381.47;;;45.40;20.45
15998;BME280;8103;51.340;12.326;2023-06-22T10:31:42;100379.56;;;46.34;19.82
15998;BME280;8103;51.340;12.326;2023-06-22T10:34:09;100372.44;;;47.13;18.80
15998;BME280;8103;51.340;12.326;2023-06-22T10:36:36;100377.84;;;47.11;18.57
15998;BME280;8103;51.340;12.326;2023-06-22T10:39:10;100372.09;;;47.05;18.74
15998;BME280;8103;51.340;12.326;2023-06-22T10:41:37;100370.00;;;47.66;17.95
15998;BME280;8103;51.340;12.326;2023-06-22T10:44:07;100369.50;;;47.68;17.91
15998;BME280;8103;51.340;12.326;2023-06-22T10:46:34;100371.09;;;47.74;17.96
15998;BME280;8103;51.340;12.326;2023-06-22T10:49:10;100365.06;;;48.54;17.33
15998;BME280;8103;51.340;12.326;2023-06-22T10:51:45;100357.00;;;48.16;17.33
15998;BME280;8103;51.340;12.326;2023-06-22T10:54:13;100360.53;;;48.73;17.09
15998;BME280;8103;51.340;12.326;2023-06-22T10:56:40;100367.38;;;49.95;15.91
15998;BME280;8103;51.340;12.326;2023-06-22T10:59:11;100356.25;;;50.03;15.90
15998;BME280;8103;51.340;12.326;2023-06-22T11:01:38;100364.03;;;49.97;15.44
15998;BME280;8103;51.340;12.326;2023-06-22T11:04:05;100345.34;;;49.63;15.46
15998;BME280;8103;51.340;12.326;2023-06-22T11:06:33;100353.00;;;50.89;15.12
15998;BME280;8103;51.340;12.326;2023-06-22T11:09:00;100346.34;;;52.03;14.80
15998;BME280;8103;51.340;12.326;2023-06-22T11:15:49;100330.34;;;53.78;13.23
15998;BME280;8103;51.340;12.326;2023-06-22T11:22:16;100325.38;;;53.78;13.37
15998;BME280;8103;51.340;12.326;2023-06-22T11:24:43;100324.88;;;53.93;13.02
15998;BME280;8103;51.340;12.326;2023-06-22T11:27:10;100328.94;;;54.42;12.96
15998;BME280;8103;51.340;12.326;2023-06-22T11:29:39;100320.41;;;52.68;13.67
15998;BME280;8103;51.340;12.326;2023-06-22T11:32:07;100311.91;;;52.81;13.63
15998;BME280;8103;51.340;12.326;2023-06-22T11:34:35;100312.38;;;53.40;13.31
15998;BME280;8103;51.340;12.326;2023-06-22T11:37:04;100306.19;;;53.55;13.38
15998;BME280;8103;51.340;12.326;2023-06-22T11:39:31;100302.69;;;53.62;13.34
15998;BME280;8103;51.340;12.326;2023-06-22T11:42:05;100298.59;;;54.02;12.95
15998;BME280;8103;51.340;12.326;2023-06-22T11:44:31;100302.00;;;54.00;13.08
15998;BME280;8103;51.340;12.326;2023-06-22T11:46:58;100303.75;;;53.90;12.99
15998;BME280;8103;51.340;12.326;2023-06-22T11:49:27;100305.97;;;54.55;12.58
15998;BME280;8103;51.340;12.326;2023-06-22T11:51:56;100304.97;;;53.32;13.63
15998;BME280;8103;51.340;12.326;2023-06-22T11:54:23;100298.34;;;53.55;13.77
15998;BME280;8103;51.340;12.326;2023-06-22T11:56:50;100295.63;;;52.89;13.91
15998;BME280;8103;51.340;12.326;2023-06-22T11:59:17;100286.16;;;52.75;13.71
15998;BME280;8103;51.340;12.326;2023-06-22T12:01:46;100277.38;;;51.66;15.05
15998;BME280;8103;51.340;12.326;2023-06-22T12:04:14;100274.00;;;51.32;15.34
15998;BME280;8103;51.340;12.326;2023-06-22T12:06:41;100263.13;;;48.91;16.87
15998;BME280;8103;51.340;12.326;2023-06-22T12:09:10;100253.06;;;46.33;18.97
15998;BME280;8103;51.340;12.326;2023-06-22T12:11:37;100252.91;;;44.11;21.18
15998;BME280;8103;51.340;12.326;2023-06-22T12:14:04;100235.72;;;45.09;20.64
15998;BME280;8103;51.340;12.326;2023-06-22T12:16:31;100244.00;;;47.66;18.12
15998;BME280;8103;51.340;12.326;2023-06-22T12:18:58;100236.06;;;49.29;16.64
15998;BME280;8103;51.340;12.326;2023-06-22T12:21:24;100243.50;;;51.40;15.28
15998;BME280;8103;51.340;12.326;2023-06-22T12:23:51;100233.09;;;52.44;14.16
15998;BME280;8103;51.340;12.326;2023-06-22T12:26:18;100234.78;;;53.46;13.72
15998;BME280;8103;51.340;12.326;2023-06-22T12:28:45;100230.00;;;52.18;14.37
15998;BME280;8103;51.340;12.326;2023-06-22T12:31:12;100221.84;;;48.65;16.98
15998;BME280;8103;51.340;12.326;2023-06-22T12:33:39;100223.50;;;46.45;19.21
15998;BME280;8103;51.340;12.326;2023-06-22T12:36:06;100211.69;;;47.43;18.46
15998;BME280;8103;51.340;12.326;2023-06-22T12:38:33;100215.00;;;49.27;16.76
15998;BME280;8103;51.340;12.326;2023-06-22T12:41:00;100214.94;;;48.93;16.96
15998;BME280;8103;51.340;12.326;2023-06-22T12:43:28;100204.56;;;50.86;15.64
15998;BME280;8103;51.340;12.326;2023-06-22T12:45:55;100211.75;;;53.01;14.13
15998;BME280;8103;51.340;12.326;2023-06-22T12:48:27;100204.09;;;54.84;13.08
15998;BME280;8103;51.340;12.326;2023-06-22T12:50:55;100200.63;;;55.40;12.21
15998;BME280;8103;51.340;12.326;2023-06-22T12:53:24;100202.09;;;54.92;12.83
15998;BME280;8103;51.340;12.326;2023-06-22T12:55:53;100191.19;;;55.52;12.73
15998;BME280;8103;51.340;12.326;2023-06-22T12:58:20;100196.25;;;56.16;11.98
15998;BME280;8103;51.340;12.326;2023-06-22T13:00:48;100192.41;;;56.56;11.27
15998;BME280;8103;51.340;12.326;2023-06-22T13:03:15;100189.50;;;56.49;11.81
15998;BME280;8103;51.340;12.326;2023-06-22T13:05:43;100190.41;;;55.11;12.36
15998;BME280;8103;51.340;12.326;2023-06-22T13:08:10;100172.34;;;53.65;13.45
15998;BME280;8103;51.340;12.326;2023-06-22T13:10:38;100164.84;;;52.00;14.57
15998;BME280;8103;51.340;12.326;2023-06-22T13:13:05;100156.34;;;50.65;15.11
15998;BME280;8103;51.340;12.326;2023-06-22T13:15:32;100148.00;;;50.05;16.32